Time;durP1;ratioP1;P1;durP2;ratioP2;P2;SDS_P1;SDS_P2;PMS_P1;PMS_P2;Temp;Humidity;BMP_temperature;BMP_pressure;BME280_temperature;BME280_humidity;BME280_pressure;Samples;Min_cycle;Max_cycle;Signal;HPM_P1;HPM_P2
2021/03/09 00:00:16;;;;;;;0.73;0.60;;;20.30;35.50;;;;;;6193360;23;20469;-80
2021/03/09 00:02:42;;;;;;;0.50;0.50;;;20.30;35.60;;;;;;6218549;23;20016;-79
2021/03/09 00:05:09;;;;;;;0.60;0.60;;;20.30;35.50;;;;;;6218395;23;20020;-80
2021/03/09 00:07:34;;;;;;;1.40;0.65;;;20.30;35.40;;;;;;6193279;23;20016;-80
2021/03/09 00:10:00;;;;;;;0.60;0.60;;;20.30;35.50;;;;;;6218532;23;20020;-80
2021/03/09 00:12:27;;;;;;;0.60;0.60;;;20.30;35.50;;;;;;6245808;23;20087;-80
2021/03/09 00:14:53;;;;;;;0.60;0.60;;;20.30;35.40;;;;;;6218477;23;20082;-80
2021/03/09 00:17:19;;;;;;;0.93;0.60;;;20.30;35.40;;;;;;6218342;23;20450;-80
2021/03/09 00:19:45;;;;;;;0.50;0.50;;;20.30;35.10;;;;;;6193318;23;20338;-79
2021/03/09 00:22:10;;;;;;;0.55;0.55;;;20.30;35.60;;;;;;6218464;23;20043;-80
2021/03/09 00:24:36;;;;;;;1.15;0.60;;;20.30;35.60;;;;;;6193232;23;20012;-79
2021/03/09 00:27:02;;;;;;;1.30;0.50;;;20.30;35.50;;;;;;6218350;23;20150;-79
2021/03/09 00:29:27;;;;;;;1.52;0.60;;;20.30;35.50;;;;;;6193216;23;20019;-79
2021/03/09 00:31:53;;;;;;;0.95;0.68;;;20.30;35.50;;;;;;6218292;23;20023;-79
2021/03/09 00:34:18;;;;;;;0.65;0.60;;;20.30;35.50;;;;;;6218414;23;20026;-80
2021/03/09 00:36:44;;;;;;;1.35;0.70;;;20.30;35.50;;;;;;6245852;22;20016;-79
2021/03/09 00:39:10;;;;;;;0.82;0.60;;;20.30;35.60;;;;;;6245120;23;20411;-80
2021/03/09 00:41:35;;;;;;;1.40;0.60;;;20.20;35.50;;;;;;6218348;23;20106;-79
2021/03/09 00:44:01;;;;;;;0.65;0.50;;;20.30;35.50;;;;;;6193179;23;20015;-79
2021/03/09 00:46:26;;;;;;;0.60;0.60;;;20.30;35.40;;;;;;6218230;23;20023;-79
2021/03/09 00:48:52;;;;;;;1.13;0.73;;;20.30;35.10;;;;;;6193275;23;20089;-80
2021/03/09 00:51:17;;;;;;;0.57;0.57;;;20.30;35.40;;;;;;6218306;23;20016;-79
2021/03/09 00:53:43;;;;;;;2.10;0.70;;;20.30;35.60;;;;;;6193553;23;20023;-79
2021/03/09 00:56:08;;;;;;;0.95;0.50;;;20.30;35.60;;;;;;6193272;23;20028;-79
2021/03/09 00:58:34;;;;;;;0.40;0.40;;;20.30;35.30;;;;;;6218004;23;20016;-80
2021/03/09 01:01:00;;;;;;;0.60;0.60;;;20.30;35.50;;;;;;6193551;23;20020;-79
2021/03/09 01:03:25;;;;;;;0.60;0.60;;;20.20;35.20;;;;;;6244943;23;20012;-80
2021/03/09 01:05:51;;;;;;;0.70;0.70;;;20.20;35.40;;;;;;6218216;23;20022;-79
2021/03/09 01:08:17;;;;;;;0.55;0.55;;;20.20;35.30;;;;;;6192947;23;20095;-79
2021/03/09 01:10:42;;;;;;;0.95;0.70;;;20.20;35.50;;;;;;6218068;23;20012;-79
2021/03/09 01:13:08;;;;;;;0.80;0.60;;;20.20;35.40;;;;;;6218018;23;20111;-79
2021/03/09 01:15:34;;;;;;;0.93;0.70;;;20.20;35.50;;;;;;6218433;23;20027;-80
2021/03/09 01:17:59;;;;;;;2.35;0.70;;;20.20;35.40;;;;;;6192889;23;20016;-79
2021/03/09 01:20:25;;;;;;;0.63;0.55;;;20.20;35.50;;;;;;6193228;23;20020;-80
2021/03/09 01:22:51;;;;;;;1.00;0.60;;;20.20;35.30;;;;;;6196741;23;20016;-80
2021/03/09 01:25:16;;;;;;;0.93;0.75;;;20.20;35.50;;;;;;6221674;23;20012;-79
2021/03/09 01:27:42;;;;;;;0.60;0.60;;;20.20;35.10;;;;;;6196026;23;20389;-79
2021/03/09 01:30:09;;;;;;;0.50;0.50;;;20.20;35.20;;;;;;6221754;23;20012;-79
2021/03/09 01:32:36;;;;;;;1.48;0.68;;;20.20;35.60;;;;;;6248034;23;20041;-80
2021/03/09 01:35:03;;;;;;;0.63;0.50;;;20.20;35.50;;;;;;6196167;23;20009;-80
2021/03/09 01:37:28;;;;;;;0.70;0.60;;;20.20;35.30;;;;;;6221115;23;20398;-80
2021/03/09 01:39:54;;;;;;;0.77;0.70;;;20.20;35.20;;;;;;6221605;23;20066;-79
2021/03/09 01:42:19;;;;;;;0.85;0.70;;;20.20;35.30;;;;;;6221223;23;20364;-79
2021/03/09 01:44:45;;;;;;;2.00;0.70;;;20.20;35.20;;;;;;6221558;23;20047;-79
2021/03/09 01:47:11;;;;;;;0.50;0.50;;;20.20;35.40;;;;;;6221498;23;20399;-79
2021/03/09 01:49:38;;;;;;;0.50;0.50;;;20.20;35.10;;;;;;6196220;23;20016;-79
2021/03/09 01:52:08;;;;;;;0.70;0.70;;;20.20;35.30;;;;;;6196392;23;20016;-79
2021/03/09 01:54:35;;;;;;;0.60;0.60;;;20.20;35.30;;;;;;6196331;23;20036;-79
2021/03/09 01:57:02;;;;;;;0.60;0.60;;;20.20;35.20;;;;;;6221147;23;20073;-79
2021/03/09 01:59:29;;;;;;;0.70;0.60;;;20.20;35.20;;;;;;6220999;23;20016;-80
2021/03/09 02:01:58;;;;;;;0.70;0.70;;;20.20;35.30;;;;;;6195854;23;20346;-79
2021/03/09 02:04:24;;;;;;;0.50;0.50;;;20.20;35.20;;;;;;6195900;23;20039;-79
2021/03/09 02:06:49;;;;;;;0.57;0.57;;;20.10;34.90;;;;;;6247934;22;20042;-80
2021/03/09 02:09:16;;;;;;;0.50;0.50;;;20.10;35.20;;;;;;6220816;23;20027;-80
2021/03/09 02:12:01;;;;;;;0.65;0.65;;;20.10;35.40;;;;;;6195885;23;20023;-79
2021/03/09 02:14:37;;;;;;;1.05;0.95;;;20.10;35.30;;;;;;6195717;23;20111;-79
2021/03/09 02:17:33;;;;;;;0.60;0.55;;;20.20;35.20;;;;;;6194505;22;20012;-80
2021/03/09 02:20:20;;;;;;;0.70;0.60;;;20.20;34.80;;;;;;6221016;23;20081;-79
2021/03/09 02:23:15;;;;;;;0.50;0.50;;;20.20;35.30;;;;;;6195827;23;20020;-79
2021/03/09 02:26:14;;;;;;;0.73;0.73;;;20.10;35.40;;;;;;6195605;23;20008;-80
2021/03/09 02:29:08;;;;;;;0.50;0.50;;;20.10;35.30;;;;;;6196157;23;20069;-79
2021/03/09 02:31:34;;;;;;;0.95;0.93;;;20.10;35.20;;;;;;6221128;23;20012;-79
2021/03/09 02:34:06;;;;;;;0.70;0.70;;;20.10;35.20;;;;;;6190030;23;20012;-79
2021/03/09 02:36:33;;;;;;;0.70;0.60;;;20.10;35.20;;;;;;6245794;23;20330;-80
2021/03/09 02:39:09;;;;;;;1.48;0.65;;;20.10;35.20;;;;;;6218812;23;20131;-80
2021/03/09 02:41:44;;;;;;;0.68;0.68;;;20.10;35.10;;;;;;6218960;23;20016;-80
2021/03/09 02:44:13;;;;;;;0.88;0.70;;;20.10;35.10;;;;;;6218715;23;20043;-79
2021/03/09 02:46:40;;;;;;;0.77;0.70;;;20.10;35.50;;;;;;6193432;23;20388;-80
2021/03/09 02:49:09;;;;;;;1.10;0.80;;;20.10;35.60;;;;;;6193745;23;20099;-79
2021/03/09 02:51:37;;;;;;;0.82;0.60;;;20.10;35.60;;;;;;6218871;23;20500;-79
2021/03/09 02:54:04;;;;;;;0.90;0.65;;;20.10;35.30;;;;;;6218726;23;20012;-79
2021/03/09 02:56:30;;;;;;;0.70;0.70;;;20.10;35.00;;;;;;6218682;23;20066;-79
2021/03/09 02:58:56;;;;;;;0.63;0.63;;;20.10;35.30;;;;;;6245550;23;20015;-80
2021/03/09 03:01:27;;;;;;;0.60;0.60;;;20.10;35.50;;;;;;6218923;23;20449;-80
2021/03/09 03:03:54;;;;;;;0.70;0.60;;;20.10;35.00;;;;;;6193799;23;20032;-79
2021/03/09 03:06:21;;;;;;;1.33;0.77;;;20.10;35.40;;;;;;6193436;23;20020;-79
2021/03/09 03:08:47;;;;;;;0.65;0.65;;;20.10;35.30;;;;;;6218726;23;20020;-79
2021/03/09 03:11:14;;;;;;;0.55;0.50;;;20.10;35.20;;;;;;6245684;22;20023;-79
2021/03/09 03:13:41;;;;;;;0.60;0.60;;;20.10;35.40;;;;;;6245697;23;20016;-79
2021/03/09 03:16:08;;;;;;;0.80;0.70;;;20.10;35.00;;;;;;6193609;23;20012;-79
2021/03/09 03:18:40;;;;;;;0.98;0.80;;;20.10;34.90;;;;;;6218691;23;20011;-79
2021/03/09 03:21:09;;;;;;;0.50;0.50;;;20.10;35.40;;;;;;6193763;23;20023;-79
2021/03/09 03:23:36;;;;;;;0.70;0.70;;;20.10;35.30;;;;;;6193962;23;20015;-80
2021/03/09 03:26:05;;;;;;;0.68;0.60;;;20.10;35.20;;;;;;6218724;23;20094;-79
2021/03/09 03:28:33;;;;;;;0.70;0.70;;;20.10;35.40;;;;;;6218765;23;20008;-79
2021/03/09 03:31:01;;;;;;;0.90;0.82;;;20.10;35.40;;;;;;6218669;23;20027;-79
2021/03/09 03:33:28;;;;;;;1.08;0.73;;;20.10;35.40;;;;;;6193593;23;20039;-79
2021/03/09 03:35:53;;;;;;;0.55;0.55;;;20.10;35.20;;;;;;6245556;23;20051;-79
2021/03/09 03:38:20;;;;;;;0.60;0.60;;;20.10;35.40;;;;;;6245566;23;20024;-79
2021/03/09 03:40:45;;;;;;;0.90;0.75;;;20.10;35.40;;;;;;6218480;23;20070;-79
2021/03/09 03:43:11;;;;;;;1.20;0.80;;;20.10;35.20;;;;;;6218506;23;20008;-79
2021/03/09 03:45:37;;;;;;;0.55;0.52;;;20.20;35.40;;;;;;6193743;23;20012;-79
2021/03/09 03:48:03;;;;;;;0.70;0.63;;;20.10;35.10;;;;;;6245406;23;20016;-80
2021/03/09 03:50:30;;;;;;;0.70;0.60;;;20.10;34.90;;;;;;6218630;23;20019;-79
2021/03/09 03:53:27;;;;;;;0.73;0.65;;;20.20;35.40;;;;;;6193548;23;20027;-79
2021/03/09 03:56:21;;;;;;;0.70;0.70;;;20.10;35.20;;;;;;6193616;23;20016;-79
2021/03/09 03:59:07;;;;;;;1.05;0.70;;;20.10;35.20;;;;;;6193513;23;20524;-79
2021/03/09 04:01:34;;;;;;;0.57;0.57;;;20.10;35.10;;;;;;6194536;23;20346;-79
2021/03/09 04:04:06;;;;;;;1.25;0.70;;;20.10;35.30;;;;;;6193543;23;20016;-79
2021/03/09 04:06:32;;;;;;;0.70;0.50;;;20.10;35.30;;;;;;6216741;23;20109;-79
2021/03/09 04:09:02;;;;;;;0.60;0.60;;;20.10;34.80;;;;;;6245317;23;20077;-79
2021/03/09 04:11:28;;;;;;;0.63;0.63;;;20.10;35.20;;;;;;6193508;23;20016;-79
2021/03/09 04:13:54;;;;;;;0.50;0.50;;;20.10;34.70;;;;;;6218950;23;20012;-79
2021/03/09 04:16:20;;;;;;;0.60;0.60;;;20.10;35.00;;;;;;6194382;23;20319;-79
2021/03/09 04:18:48;;;;;;;1.15;0.70;;;20.10;35.00;;;;;;6245131;23;20075;-79
2021/03/09 04:21:15;;;;;;;0.57;0.57;;;20.10;35.30;;;;;;6218441;23;20081;-80
2021/03/09 04:23:41;;;;;;;0.60;0.60;;;20.10;35.30;;;;;;6218388;23;20024;-79
2021/03/09 04:26:08;;;;;;;0.70;0.55;;;20.10;35.30;;;;;;6193620;23;20480;-80
2021/03/09 04:28:34;;;;;;;0.50;0.50;;;20.10;35.20;;;;;;6193728;23;20098;-80
2021/03/09 04:31:01;;;;;;;0.55;0.55;;;20.10;35.20;;;;;;6193216;23;20015;-79
2021/03/09 04:33:28;;;;;;;0.60;0.60;;;20.10;35.40;;;;;;6193616;23;20096;-79
2021/03/09 04:35:56;;;;;;;0.50;0.50;;;20.10;35.20;;;;;;6219041;23;20051;-79
2021/03/09 04:38:22;;;;;;;0.80;0.60;;;20.10;35.20;;;;;;6193311;23;20016;-79
2021/03/09 04:40:49;;;;;;;0.57;0.57;;;20.10;35.40;;;;;;6193308;23;20497;-79
2021/03/09 04:43:15;;;;;;;0.43;0.43;;;20.10;35.20;;;;;;6193058;23;20016;-79
2021/03/09 04:45:40;;;;;;;0.63;0.63;;;20.10;35.20;;;;;;6193710;23;20023;-79
2021/03/09 04:48:08;;;;;;;0.80;0.70;;;20.10;34.80;;;;;;6193230;23;20098;-79
2021/03/09 04:50:39;;;;;;;0.52;0.52;;;20.00;35.30;;;;;;6192924;23;20055;-80
2021/03/09 04:53:08;;;;;;;0.53;0.50;;;20.00;35.10;;;;;;6245236;23;20082;-80
2021/03/09 04:55:33;;;;;;;0.65;0.65;;;20.00;35.00;;;;;;6217614;23;20079;-79
2021/03/09 04:58:01;;;;;;;0.70;0.55;;;20.00;34.90;;;;;;6245118;23;20055;-80
2021/03/09 05:00:28;;;;;;;1.08;0.60;;;20.00;35.30;;;;;;6218189;23;20342;-80
2021/03/09 05:02:53;;;;;;;1.55;0.70;;;20.00;35.10;;;;;;6245152;23;20016;-79
2021/03/09 05:05:23;;;;;;;0.50;0.50;;;20.00;35.10;;;;;;6244980;23;20027;-80
2021/03/09 05:07:50;;;;;;;0.50;0.50;;;20.00;35.10;;;;;;6193112;23;20018;-80
2021/03/09 05:10:17;;;;;;;0.68;0.65;;;20.00;34.90;;;;;;6218188;23;20020;-80
2021/03/09 05:12:45;;;;;;;0.60;0.60;;;20.00;34.90;;;;;;6244918;23;20095;-79
2021/03/09 05:15:11;;;;;;;0.63;0.60;;;20.00;35.00;;;;;;6218223;23;20016;-80
2021/03/09 05:17:38;;;;;;;1.00;0.80;;;20.00;35.00;;;;;;6192973;23;20039;-79
2021/03/09 05:20:05;;;;;;;0.82;0.50;;;20.00;34.80;;;;;;6245211;23;20016;-79
2021/03/09 05:22:31;;;;;;;0.55;0.55;;;20.00;34.70;;;;;;6218004;23;21480;-80
2021/03/09 05:25:03;;;;;;;0.85;0.50;;;20.00;34.70;;;;;;6217534;23;20060;-79
2021/03/09 05:27:28;;;;;;;0.60;0.60;;;20.00;34.90;;;;;;6192662;23;20020;-79
2021/03/09 05:29:57;;;;;;;0.70;0.50;;;20.00;34.70;;;;;;6192943;23;20519;-79
2021/03/09 05:32:25;;;;;;;0.90;0.70;;;20.00;35.10;;;;;;6193298;23;20016;-79
2021/03/09 05:34:54;;;;;;;0.47;0.45;;;20.00;34.90;;;;;;6192719;23;20082;-79
2021/03/09 05:37:25;;;;;;;0.90;0.80;;;19.90;34.60;;;;;;6217548;23;20036;-80
2021/03/09 05:39:51;;;;;;;0.73;0.60;;;20.00;34.80;;;;;;6217796;23;20023;-80
2021/03/09 05:42:20;;;;;;;0.70;0.70;;;20.00;34.90;;;;;;6244721;23;20012;-80
2021/03/09 05:44:49;;;;;;;0.60;0.60;;;20.00;34.70;;;;;;6217734;23;20101;-79
2021/03/09 05:55:53;;;;;;;1.75;0.68;;;20.00;34.80;;;;;;6183798;23;20484;-79
2021/03/09 05:59:32;;;;;;;0.50;0.50;;;20.00;34.80;;;;;;6217547;23;20074;-80
2021/03/09 06:10:53;;;;;;;;;;;;;;;;;;;;;
2021/03/09 06:18:14;;;;;;;0.95;0.70;;;20.00;34.40;;;;;;5893597;24;20075;-79
2021/03/09 06:25:53;;;;;;;;;;;;;;;;;;;;;
2021/03/09 06:29:33;;;;;;;0.70;0.65;;;20.00;34.60;;;;;;6006403;23;20034;-79
2021/03/09 06:33:17;;;;;;;2.08;0.60;;;20.00;34.50;;;;;;6006727;23;20437;-79
2021/03/09 06:36:37;;;;;;;1.27;0.70;;;20.00;34.60;;;;;;6008191;23;20069;-79
2021/03/09 06:39:57;;;;;;;0.80;0.70;;;20.00;34.40;;;;;;5948615;23;20031;-79
2021/03/09 06:43:23;;;;;;;0.70;0.68;;;20.00;34.70;;;;;;6095880;23;20018;-80
2021/03/09 06:47:02;;;;;;;;;;;;;;;;;;;;;
2021/03/09 06:50:30;;;;;;;1.20;0.70;;;19.90;34.50;;;;;;6123450;23;20060;-79
2021/03/09 06:53:34;;;;;;;0.63;0.60;;;20.00;34.50;;;;;;6156101;23;20016;-79
2021/03/09 06:57:38;;;;;;;;;;;;;;;;;;;;;
2021/03/09 07:01:04;;;;;;;;;;;;;;;;;;;;;
2021/03/09 07:08:27;;;;;;;0.77;0.55;;;20.00;34.60;;;;;;6035385;23;20025;-79
2021/03/09 07:12:04;;;;;;;1.10;0.73;;;20.00;34.60;;;;;;6045769;23;20022;-79
2021/03/09 07:15:07;;;;;;;0.55;0.55;;;20.00;34.80;;;;;;6012146;23;20114;-79
2021/03/09 07:21:57;;;;;;;;;;;;;;;;;;;;;
2021/03/09 07:29:03;;;;;;;0.85;0.70;;;20.00;34.60;;;;;;6242545;23;20103;-80
2021/03/09 07:32:45;;;;;;;1.42;0.85;;;20.00;34.60;;;;;;6220662;23;20023;-80
2021/03/09 08:03:02;;;;;;;2.22;0.90;;;19.90;34.40;;;;;;6238952;23;20489;-79
2021/03/09 08:06:56;;;;;;;;;;;;;;;;;;;;;
2021/03/09 08:10:38;;;;;;;0.95;0.65;;;20.00;34.30;;;;;;6244954;22;20078;-79
2021/03/09 08:18:43;;;;;;;1.75;0.90;;;20.00;34.40;;;;;;6063935;23;20019;-80
2021/03/09 08:33:58;;;;;;;;;;;;;;;;;;;;;
2021/03/09 08:40:33;;;;;;;1.67;0.80;;;20.00;34.40;;;;;;6088564;23;20061;-79
2021/03/09 08:52:18;;;;;;;1.63;0.80;;;20.00;34.60;;;;;;6008295;23;20116;-79
2021/03/09 09:04:17;;;;;;;1.80;0.90;;;20.00;34.50;;;;;;6090904;23;20025;-79
2021/03/09 09:08:13;;;;;;;;;;;;;;;;;;;;;
2021/03/09 09:11:54;;;;;;;3.60;1.17;;;20.00;35.00;;;;;;6033797;23;20103;-80
2021/03/09 09:31:46;;;;;;;2.13;0.80;;;20.00;34.40;;;;;;5975853;23;20020;-79
2021/03/09 09:35:28;;;;;;;;;;;;;;;;;;;;;
2021/03/09 09:39:23;;;;;;;1.17;0.73;;;20.00;34.40;;;;;;5987604;23;20536;-79
2021/03/09 09:54:38;;;;;;;4.68;1.45;;;20.10;34.60;;;;;;6124064;23;20029;-79
2021/03/09 09:58:45;;;;;;;;;;;;;;;;;;;;;
2021/03/09 10:10:35;;;;;;;;;;;20.10;34.60;;;;;;6032129;23;20155;-80
2021/03/09 10:18:17;;;;;;;;;;;;;;;;;;;;;
2021/03/09 10:26:20;;;;;;;2.20;1.20;;;20.10;34.40;;;;;;6145763;23;20024;-80
2021/03/09 10:33:33;;;;;;;;;;;;;;;;;;;;;
2021/03/09 10:57:02;;;;;;;3.90;1.30;;;20.10;34.20;;;;;;6230957;23;20397;-79
2021/03/09 11:00:12;;;;;;;;;;;;;;;;;;;;;
2021/03/09 11:12:28;;;;;;;2.53;1.13;;;20.10;34.10;;;;;;5993827;23;20027;-79
2021/03/09 11:23:52;;;;;;;;;;;;;;;;;;;;;
2021/03/09 12:07:11;;;;;;;5.28;1.90;;;20.20;34.10;;;;;;5852336;24;20114;-79
2021/03/09 12:10:25;;;;;;;5.20;1.60;;;20.20;34.10;;;;;;5843582;24;20022;-79
2021/03/09 12:13:34;;;;;;;4.57;1.58;;;20.20;34.20;;;;;;5872768;24;20025;-80
2021/03/09 12:24:40;;;;;;;7.77;1.80;;;20.20;34.00;;;;;;5921204;24;20025;-79
2021/03/09 12:32:08;;;;;;;;;;;;;;;;;;;;;
2021/03/09 12:39:35;;;;;;;2.67;1.60;;;20.20;34.10;;;;;;6067864;23;20078;-80
2021/03/09 12:43:29;;;;;;;6.85;2.17;;;20.20;34.10;;;;;;6144824;23;20127;-79
2021/03/09 12:55:28;;;;;;;;;;;;;;;;;;;;;
2021/03/09 13:02:14;;;;;;;5.35;1.60;;;20.20;34.10;;;;;;6161116;23;20020;-80
2021/03/09 13:05:52;;;;;;;9.52;2.00;;;20.20;34.10;;;;;;6179708;23;20431;-80
2021/03/09 13:08:55;;;;;;;4.20;1.60;;;20.20;34.00;;;;;;6182020;23;20399;-79
2021/03/09 13:16:49;;;;;;;3.72;1.88;;;20.20;34.10;;;;;;6177701;23;20103;-79
2021/03/09 13:19:54;;;;;;;3.85;1.88;;;20.20;34.10;;;;;;6191253;23;20553;-79
2021/03/09 13:23:34;;;;;;;5.43;1.88;;;20.20;34.00;;;;;;6163595;23;20013;-79
2021/03/09 13:33:27;;;;;;;5.68;1.85;;;20.10;34.00;;;;;;6244506;23;20087;-79
2021/03/09 13:37:22;;;;;;;;;;;;;;;;;;;;;
2021/03/09 13:40:57;;;;;;;6.65;1.95;;;20.10;34.00;;;;;;6151077;23;20100;-80
2021/03/09 13:44:49;;;;;;;;;;;;;;;;;;;;;
2021/03/09 13:48:17;;;;;;;7.55;1.88;;;20.10;33.90;;;;;;6153262;23;20024;-79
2021/03/09 13:51:54;;;;;;;7.35;2.20;;;20.20;34.10;;;;;;6173819;23;20021;-80
2021/03/09 13:55:44;;;;;;;4.07;1.83;;;20.10;33.90;;;;;;6179386;23;20095;-79
2021/03/09 13:58:57;;;;;;;;;;;;;;;;;;;;;
2021/03/09 14:05:25;;;;;;;6.43;1.83;;;20.20;34.00;;;;;;6115315;23;20026;-79
2021/03/09 14:08:24;;;;;;;3.70;2.10;;;20.20;34.00;;;;;;6094985;23;20030;-79
2021/03/09 14:11:40;;;;;;;;;;;;;;;;;;;;;
2021/03/09 14:15:01;;;;;;;7.05;2.35;;;20.10;34.00;;;;;;6173957;23;20048;-79
2021/03/09 14:18:38;;;;;;;4.57;1.95;;;20.10;33.90;;;;;;6152289;23;20037;-79
2021/03/09 14:21:44;;;;;;;;;;;;;;;;;;;;;
2021/03/09 14:25:23;;;;;;;2.70;1.80;;;20.10;33.90;;;;;;6241773;22;20008;-79
2021/03/09 14:28:52;;;;;;;7.38;2.03;;;20.10;34.00;;;;;;6111288;23;20135;-80
2021/03/09 14:36:07;;;;;;;3.63;1.90;;;20.10;33.90;;;;;;6008235;23;20366;-80
2021/03/09 14:39:29;;;;;;;3.78;1.88;;;20.10;33.80;;;;;;5981229;23;20458;-79
2021/03/09 14:42:15;;;;;;;6.32;1.90;;;20.10;34.00;;;;;;6035812;23;20029;-79
2021/03/09 14:45:09;;;;;;;7.00;2.22;;;20.10;34.00;;;;;;6125126;23;20028;-79
2021/03/09 14:48:27;;;;;;;;;;;;;;;;;;;;;
2021/03/09 14:51:36;;;;;;;;;;;;;;;;;;;;;
2021/03/09 15:02:52;;;;;;;;;;;;;;;;;;;;;
2021/03/09 15:10:24;;;;;;;4.72;1.95;;;20.10;34.10;;;;;;6150373;23;20022;-79
2021/03/09 15:13:48;;;;;;;6.80;2.15;;;20.10;34.00;;;;;;6104224;23;20048;-79
2021/03/09 15:24:48;;;;;;;3.72;1.83;;;20.10;33.90;;;;;;6118892;23;20068;-79
2021/03/09 15:52:23;;;;;;;;;;;;;;;;;;;;;
2021/03/09 16:25:22;;;;;;;5.50;2.03;;;20.00;33.90;;;;;;6005749;23;20031;-80
2021/03/09 16:36:45;;;;;;;7.88;2.78;;;20.00;33.90;;;;;;6083383;23;20118;-79
2021/03/09 16:44:37;;;;;;;;;;;;;;;;;;;;;
2021/03/09 17:04:42;;;;;;;;;;;;;;;;;;;;;
2021/03/09 17:08:42;;;;;;;3.55;2.08;;;19.90;34.00;;;;;;6006872;23;20347;-79
2021/03/09 17:12:03;;;;;;;3.85;1.95;;;19.90;34.00;;;;;;5946213;23;20110;-79
2021/03/09 17:14:32;;;;;;;3.10;1.70;;;20.00;34.00;;;;;;6032890;23;20039;-79
2021/03/09 17:17:00;;;;;;;1.83;1.27;;;20.00;34.00;;;;;;6076162;23;20032;-79
2021/03/09 17:19:25;;;;;;;4.22;1.92;;;20.00;34.00;;;;;;6211875;23;20458;-79
2021/03/09 17:21:54;;;;;;;3.95;1.85;;;20.00;34.40;;;;;;6193431;23;20055;-79
2021/03/09 17:24:19;;;;;;;4.50;1.73;;;20.00;33.90;;;;;;6245253;23;20008;-79
2021/03/09 17:26:45;;;;;;;7.35;1.98;;;20.00;33.80;;;;;;6218318;23;20375;-79
2021/03/09 17:29:11;;;;;;;2.60;1.50;;;20.00;33.90;;;;;;6244933;23;20023;-80
2021/03/09 17:31:36;;;;;;;4.68;2.20;;;20.00;33.80;;;;;;6218054;23;20015;-79
2021/03/09 17:34:02;;;;;;;3.60;1.55;;;20.00;33.90;;;;;;6192977;23;20019;-80
2021/03/09 17:36:27;;;;;;;3.58;2.22;;;20.00;33.80;;;;;;6218379;23;20366;-79
2021/03/09 17:38:53;;;;;;;3.33;1.90;;;20.00;33.80;;;;;;6192896;23;20066;-79
2021/03/09 17:41:19;;;;;;;4.90;1.95;;;20.00;33.70;;;;;;6217917;23;20012;-79
2021/03/09 17:43:44;;;;;;;3.58;1.88;;;20.00;33.70;;;;;;6192717;23;20038;-79
2021/03/09 17:46:11;;;;;;;2.30;1.65;;;20.00;33.80;;;;;;6217758;23;20103;-79
2021/03/09 17:48:37;;;;;;;4.28;1.95;;;20.00;33.70;;;;;;6193107;23;20016;-79
2021/03/09 17:51:02;;;;;;;2.85;1.80;;;20.00;33.80;;;;;;6217848;23;20023;-79
2021/03/09 17:53:28;;;;;;;3.92;2.00;;;20.00;34.30;;;;;;6218016;23;20047;-80
2021/03/09 17:55:54;;;;;;;5.40;2.15;;;20.00;33.70;;;;;;6192895;23;20063;-79
2021/03/09 17:58:20;;;;;;;5.97;2.03;;;20.00;33.80;;;;;;6217655;23;20016;-79
2021/03/09 18:00:45;;;;;;;3.70;1.75;;;20.00;33.90;;;;;;6217679;23;20012;-79
2021/03/09 18:03:11;;;;;;;2.55;1.80;;;20.00;33.70;;;;;;6245290;23;20023;-80
2021/03/09 18:05:39;;;;;;;5.03;1.92;;;20.00;33.80;;;;;;6219092;23;20015;-79
2021/03/09 18:08:06;;;;;;;4.30;2.30;;;20.00;33.70;;;;;;6193872;23;20028;-80
2021/03/09 18:10:33;;;;;;;7.20;2.08;;;20.00;33.70;;;;;;6219315;23;20326;-79
2021/03/09 18:13:00;;;;;;;2.85;1.80;;;20.00;33.90;;;;;;6245839;23;20011;-79
2021/03/09 18:15:27;;;;;;;5.28;2.08;;;20.00;33.70;;;;;;6219018;23;20020;-79
2021/03/09 18:17:55;;;;;;;2.92;1.58;;;20.00;33.70;;;;;;6218472;23;20020;-80
2021/03/09 18:20:21;;;;;;;3.03;1.70;;;20.10;33.80;;;;;;6218669;23;20023;-80
2021/03/09 18:22:48;;;;;;;5.05;2.15;;;20.10;33.80;;;;;;6218958;23;20024;-79
2021/03/09 18:25:15;;;;;;;5.70;2.08;;;20.10;33.80;;;;;;6193764;23;20012;-79
2021/03/09 18:27:42;;;;;;;3.33;1.67;;;20.00;33.70;;;;;;6245768;23;20013;-80
2021/03/09 18:30:08;;;;;;;4.22;2.15;;;20.00;33.70;;;;;;6193515;23;20507;-79
2021/03/09 18:32:34;;;;;;;4.80;2.15;;;20.00;33.70;;;;;;6245908;23;20016;-79
2021/03/09 18:35:00;;;;;;;4.47;1.77;;;20.00;33.70;;;;;;6246219;23;20354;-79
2021/03/09 18:37:25;;;;;;;4.20;1.92;;;20.00;33.70;;;;;;6219677;23;20027;-79
2021/03/09 18:39:51;;;;;;;4.40;1.75;;;20.00;33.70;;;;;;6219648;23;20020;-79
2021/03/09 18:42:17;;;;;;;2.75;1.92;;;20.00;33.60;;;;;;6194946;23;20011;-79
2021/03/09 18:44:42;;;;;;;2.97;2.03;;;20.00;33.60;;;;;;6193608;23;20024;-79
2021/03/09 18:47:08;;;;;;;2.42;1.70;;;20.00;33.70;;;;;;6219141;23;20020;-79
2021/03/09 18:49:34;;;;;;;2.00;1.50;;;20.00;33.70;;;;;;6246140;23;20458;-79
2021/03/09 18:52:00;;;;;;;3.45;1.92;;;20.00;33.80;;;;;;6194204;23;20020;-79
2021/03/09 18:54:26;;;;;;;2.70;1.88;;;20.00;33.70;;;;;;6219012;23;20083;-79
2021/03/09 18:56:52;;;;;;;3.28;1.63;;;20.00;33.70;;;;;;6219281;23;20039;-79
2021/03/09 18:59:19;;;;;;;4.13;2.33;;;20.00;33.80;;;;;;6219707;23;20370;-79
2021/03/09 19:01:44;;;;;;;3.80;1.73;;;20.00;33.70;;;;;;6195001;23;20393;-79
2021/03/09 19:04:10;;;;;;;3.45;2.20;;;20.00;33.70;;;;;;6190744;23;20101;-80
2021/03/09 19:06:36;;;;;;;4.25;1.88;;;20.00;33.70;;;;;;6245669;23;20054;-80
2021/03/09 19:09:02;;;;;;;3.92;1.90;;;20.00;33.70;;;;;;6193863;23;20102;-79
2021/03/09 19:11:27;;;;;;;2.38;1.70;;;20.00;33.70;;;;;;6218954;23;20016;-80
2021/03/09 19:13:55;;;;;;;3.53;1.90;;;20.00;33.60;;;;;;6245956;23;20083;-80
2021/03/09 19:16:20;;;;;;;2.45;1.50;;;20.00;33.70;;;;;;6218939;23;20019;-79
2021/03/09 19:18:46;;;;;;;2.67;1.83;;;20.00;33.60;;;;;;6193469;23;20020;-79
2021/03/09 19:21:13;;;;;;;2.83;1.85;;;20.00;33.70;;;;;;6218542;23;20020;-80
2021/03/09 19:23:40;;;;;;;2.38;1.33;;;20.00;33.60;;;;;;6218490;23;20023;-79
2021/03/09 19:26:05;;;;;;;3.75;1.83;;;20.00;33.70;;;;;;6245504;23;20008;-79
2021/03/09 19:28:31;;;;;;;2.25;1.67;;;20.00;34.30;;;;;;6218395;23;20115;-79
2021/03/09 19:30:57;;;;;;;2.30;1.90;;;20.00;33.60;;;;;;6245932;23;20016;-79
2021/03/09 19:33:22;;;;;;;3.45;1.77;;;20.00;33.60;;;;;;6245520;23;20039;-79
2021/03/09 19:35:48;;;;;;;3.78;1.60;;;20.00;33.60;;;;;;6218725;23;20019;-79
2021/03/09 19:38:14;;;;;;;2.78;1.92;;;20.00;33.60;;;;;;6193363;23;20071;-79
2021/03/09 19:40:41;;;;;;;2.40;1.88;;;20.00;33.60;;;;;;6218630;23;20020;-80
2021/03/09 19:43:09;;;;;;;1.88;1.73;;;20.00;33.60;;;;;;6218684;23;20012;-79
2021/03/09 19:45:36;;;;;;;2.25;1.90;;;20.00;33.60;;;;;;6218436;23;20043;-80
2021/03/09 19:48:02;;;;;;;3.78;1.50;;;20.00;33.60;;;;;;6192973;22;20016;-80
2021/03/09 19:50:29;;;;;;;2.78;1.90;;;20.00;33.60;;;;;;6193321;23;20020;-80
2021/03/09 19:52:55;;;;;;;3.97;1.77;;;20.00;33.50;;;;;;6218980;23;20023;-79
2021/03/09 19:55:20;;;;;;;3.75;1.63;;;20.00;33.80;;;;;;6193053;23;20016;-79
2021/03/09 19:57:46;;;;;;;3.05;1.60;;;20.00;33.60;;;;;;6245339;23;20016;-79
2021/03/09 20:00:12;;;;;;;3.65;1.90;;;20.00;33.60;;;;;;6218305;23;20387;-79
2021/03/09 20:02:38;;;;;;;3.42;1.88;;;20.00;33.60;;;;;;6245305;23;20459;-79
2021/03/09 20:05:05;;;;;;;2.20;1.60;;;20.00;33.60;;;;;;6218398;23;20012;-79
2021/03/09 20:07:31;;;;;;;2.17;1.63;;;20.00;33.60;;;;;;6244580;23;20020;-80
2021/03/09 20:09:57;;;;;;;2.00;1.67;;;20.00;33.60;;;;;;6245352;23;20016;-79
2021/03/09 20:12:23;;;;;;;4.18;1.63;;;20.00;33.50;;;;;;6218890;23;20529;-79
2021/03/09 20:14:51;;;;;;;4.50;1.92;;;20.00;33.50;;;;;;6245470;23;20010;-79
2021/03/09 20:17:16;;;;;;;3.03;1.58;;;20.00;33.60;;;;;;6193338;23;20020;-79
2021/03/09 20:19:42;;;;;;;2.20;1.50;;;20.00;33.50;;;;;;6218216;23;20024;-79
2021/03/09 20:22:08;;;;;;;3.03;1.80;;;20.00;33.50;;;;;;6193429;23;20016;-79
2021/03/09 20:24:34;;;;;;;2.70;1.75;;;20.00;33.60;;;;;;6218776;23;20139;-79
2021/03/09 20:27:00;;;;;;;3.08;1.77;;;20.00;33.50;;;;;;6245121;23;20354;-79
2021/03/09 20:29:27;;;;;;;1.63;1.40;;;20.00;33.50;;;;;;6190030;23;20453;-79
2021/03/09 20:31:53;;;;;;;3.83;1.75;;;20.00;33.50;;;;;;6218045;23;20012;-80
2021/03/09 20:34:19;;;;;;;3.25;1.80;;;20.00;33.60;;;;;;6218594;23;20013;-79
2021/03/09 20:36:45;;;;;;;3.67;2.00;;;20.00;33.50;;;;;;6218241;23;20094;-79
2021/03/09 20:39:12;;;;;;;1.67;1.38;;;20.00;33.50;;;;;;6218457;23;20442;-79
2021/03/09 20:41:38;;;;;;;3.67;1.70;;;20.00;33.50;;;;;;6218595;23;20012;-79
2021/03/09 20:44:04;;;;;;;1.95;1.48;;;20.00;33.50;;;;;;6190461;23;20331;-79
2021/03/09 20:46:29;;;;;;;3.22;1.67;;;20.00;33.40;;;;;;6193066;23;20016;-80
2021/03/09 20:48:55;;;;;;;3.53;1.70;;;20.00;33.40;;;;;;6193174;23;20026;-80
2021/03/09 20:51:21;;;;;;;3.58;1.73;;;20.00;33.50;;;;;;6218301;23;20016;-80
2021/03/09 20:53:46;;;;;;;3.15;1.70;;;20.00;33.50;;;;;;6193546;23;20442;-80
2021/03/09 20:56:13;;;;;;;2.50;1.85;;;20.00;33.50;;;;;;6193967;23;20012;-80
2021/03/09 20:58:38;;;;;;;2.53;1.88;;;20.00;33.40;;;;;;6218295;23;20019;-80
2021/03/09 21:01:04;;;;;;;3.40;1.73;;;20.00;33.50;;;;;;6218191;23;20016;-79
2021/03/09 21:03:30;;;;;;;2.72;1.83;;;20.00;33.40;;;;;;6193048;23;20012;-80